Ana Sayfa
METAR-TAF:

METAR-TAF

Havaalanları :

Mount Pleasant Municipal Airport

Mount Pleasant, Iowa, Amerika Birleşik Devletleri

Enlem: 40-56-48N, Boylam: 091-30-40W, yükseklik: 224 m

Güncel hava durumu gözlemi

Rapor saat 10:55 UTC de 32 dakika önce yapıldı.
Rüzgar güneybatıdan 11 kt
Sıcaklık 27°C
Nem 70%
Basınç 1007 hPa
Görüş mesafesi: 16.1 km
Açık gökyüzü

METAR: KMPZ 251055Z AUTO 22011KT 10SM CLR 27/21 A2973 RMK AO2

Saat: 06:27 (11:27 UTC)


TAF: eksik

4.000'den fazla havaalanı için hava durumu gözlemleri ve tahminleri (METAR ve TAF raporları).

Kullanılabilir istasyonlar harita üzerinde sarı ve kırmızı noktalarla gösterilir.

İstasyonun adını görmek için fareyi noktanın üzerinde gezdirin.

Sonrasında hava gözlem ve tahminlerini görmek için tıklayın.

Haritayı değiştirmek için: yaklaştırmak için siyah artı işaretli yeşil düğmeye ve uzaklaştırmak için de eksi işaretli düğmeye hızla tıklayın; bitişik haritalar için yeşil okları kullanın.


METAR-TAF: